Delphia, Montana
Current Conditions -  °F | °C
As of 4:20 AM on Thursday 18 Dec 2014 (Local Time) from KMVH Reporting Station
Clear Clear  
Wind Chill: 17°   Ceiling: Unl
Heat Index: 25°   Visibility: 10mi
Dew Point: 18°   Wind: 7mph
Humidity: 74%   Direction: 250°WSW
Pressure: 29.9"   Gusts: NA
Location:  46.5044°N, 108.218°W
Report Text: KMVH 181120Z AUTO 25006KT 10SM CLR M04/M08 A2990 RMK A01
Loading
Personal Weather Stations






























Interactive Weather Map New forecast layout! Learn more

10-Day Weather Forecast

Advertisements
Track Severe Weather on mobile